sensor_id;sensor_type;location;lat;lon;timestamp;temperature;humidity
78550;DHT22;68091;52.130;5.570;2023-04-01T00:01:05;9.60;99.90
78550;DHT22;68091;52.130;5.570;2023-04-01T00:03:32;9.60;99.90
78550;DHT22;68091;52.130;5.570;2023-04-01T00:05:59;9.60;99.90
78550;DHT22;68091;52.130;5.570;2023-04-01T00:08:26;9.60;99.90
78550;DHT22;68091;52.130;5.570;2023-04-01T00:10:52;9.60;99.90
78550;DHT22;68091;52.130;5.570;2023-04-01T00:13:18;9.60;99.90
78550;DHT22;68091;52.130;5.570;2023-04-01T00:15:45;9.60;99.90
78550;DHT22;68091;52.130;5.570;2023-04-01T00:18:11;9.60;99.90
78550;DHT22;68091;52.130;5.570;2023-04-01T00:20:38;9.60;99.90
78550;DHT22;68091;52.130;5.570;2023-04-01T00:23:04;9.60;99.90
78550;DHT22;68091;52.130;5.570;2023-04-01T00:25:30;9.60;99.90
78550;DHT22;68091;52.130;5.570;2023-04-01T00:27:56;9.60;99.90
78550;DHT22;68091;52.130;5.570;2023-04-01T00:30:22;9.70;99.90
78550;DHT22;68091;52.130;5.570;2023-04-01T00:32:52;9.60;99.90
78550;DHT22;68091;52.130;5.570;2023-04-01T00:35:18;9.60;99.90
78550;DHT22;68091;52.130;5.570;2023-04-01T00:37:44;9.70;99.90
78550;DHT22;68091;52.130;5.570;2023-04-01T00:40:24;9.60;99.90
78550;DHT22;68091;52.130;5.570;2023-04-01T00:42:51;9.70;99.90
78550;DHT22;68091;52.130;5.570;2023-04-01T00:45:30;9.60;99.90
78550;DHT22;68091;52.130;5.570;2023-04-01T00:47:58;9.60;99.90
78550;DHT22;68091;52.130;5.570;2023-04-01T00:50:26;9.70;99.90
78550;DHT22;68091;52.130;5.570;2023-04-01T00:52:52;9.60;99.90
78550;DHT22;68091;52.130;5.570;2023-04-01T00:55:19;9.70;99.90
78550;DHT22;68091;52.130;5.570;2023-04-01T00:57:48;9.60;99.90
78550;DHT22;68091;52.130;5.570;2023-04-01T01:00:16;9.60;99.90
78550;DHT22;68091;52.130;5.570;2023-04-01T01:02:44;9.60;99.90
78550;DHT22;68091;52.130;5.570;2023-04-01T01:05:16;9.60;99.90
78550;DHT22;68091;52.130;5.570;2023-04-01T01:07:52;9.60;99.90
78550;DHT22;68091;52.130;5.570;2023-04-01T01:10:26;9.60;99.90
78550;DHT22;68091;52.130;5.570;2023-04-01T01:13:23;9.70;99.90
78550;DHT22;68091;52.130;5.570;2023-04-01T01:16:01;9.70;99.90
78550;DHT22;68091;52.130;5.570;2023-04-01T01:21:49;9.60;99.90
78550;DHT22;68091;52.130;5.570;2023-04-01T01:27:04;9.60;99.90
78550;DHT22;68091;52.130;5.570;2023-04-01T01:29:45;9.50;99.90
78550;DHT22;68091;52.130;5.570;2023-04-01T01:32:44;9.50;99.90
78550;DHT22;68091;52.130;5.570;2023-04-01T01:38:00;9.50;99.90
78550;DHT22;68091;52.130;5.570;2023-04-01T01:40:29;9.50;99.90
78550;DHT22;68091;52.130;5.570;2023-04-01T01:43:01;9.40;99.90
78550;DHT22;68091;52.130;5.570;2023-04-01T01:45:29;9.50;99.90
78550;DHT22;68091;52.130;5.570;2023-04-01T01:47:56;9.40;99.90
78550;DHT22;68091;52.130;5.570;2023-04-01T01:50:24;9.40;99.90
78550;DHT22;68091;52.130;5.570;2023-04-01T01:52:57;9.40;99.90
78550;DHT22;68091;52.130;5.570;2023-04-01T01:55:40;9.40;99.90
78550;DHT22;68091;52.130;5.570;2023-04-01T02:00:59;9.40;99.90
78550;DHT22;68091;52.130;5.570;2023-04-01T02:03:30;9.40;99.90
78550;DHT22;68091;52.130;5.570;2023-04-01T02:05:59;9.30;99.90
78550;DHT22;68091;52.130;5.570;2023-04-01T02:08:36;9.30;99.90
78550;DHT22;68091;52.130;5.570;2023-04-01T02:11:08;9.40;99.90
78550;DHT22;68091;52.130;5.570;2023-04-01T02:14:05;9.40;99.90
78550;DHT22;68091;52.130;5.570;2023-04-01T02:16:51;9.30;99.90
78550;DHT22;68091;52.130;5.570;2023-04-01T02:19:18;9.30;99.90
78550;DHT22;68091;52.130;5.570;2023-04-01T02:21:52;9.30;99.90
78550;DHT22;68091;52.130;5.570;2023-04-01T02:24:20;9.30;99.90
78550;DHT22;68091;52.130;5.570;2023-04-01T02:26:50;9.20;99.90
78550;DHT22;68091;52.130;5.570;2023-04-01T02:29:19;9.20;99.90
78550;DHT22;68091;52.130;5.570;2023-04-01T02:31:46;9.20;99.90
78550;DHT22;68091;52.130;5.570;2023-04-01T02:34:13;9.20;99.90
78550;DHT22;68091;52.130;5.570;2023-04-01T02:36:39;9.30;99.90
78550;DHT22;68091;52.130;5.570;2023-04-01T02:39:05;9.20;99.90
78550;DHT22;68091;52.130;5.570;2023-04-01T02:41:31;9.20;99.90
78550;DHT22;68091;52.130;5.570;2023-04-01T02:44:03;9.20;99.90
78550;DHT22;68091;52.130;5.570;2023-04-01T02:46:29;9.20;99.90
78550;DHT22;68091;52.130;5.570;2023-04-01T02:48:55;9.20;99.90
78550;DHT22;68091;52.130;5.570;2023-04-01T02:51:21;9.20;99.90
78550;DHT22;68091;52.130;5.570;2023-04-01T02:53:49;9.20;99.90
78550;DHT22;68091;52.130;5.570;2023-04-01T02:56:15;9.10;99.90
78550;DHT22;68091;52.130;5.570;2023-04-01T02:58:41;9.20;99.90
78550;DHT22;68091;52.130;5.570;2023-04-01T03:01:07;9.20;99.90
78550;DHT22;68091;52.130;5.570;2023-04-01T03:03:33;9.10;99.90
78550;DHT22;68091;52.130;5.570;2023-04-01T03:06:08;9.10;99.90
78550;DHT22;68091;52.130;5.570;2023-04-01T03:08:34;9.10;99.90
78550;DHT22;68091;52.130;5.570;2023-04-01T03:11:00;9.10;99.90
78550;DHT22;68091;52.130;5.570;2023-04-01T03:13:26;9.10;99.90
78550;DHT22;68091;52.130;5.570;2023-04-01T03:15:54;9.10;99.90
78550;DHT22;68091;52.130;5.570;2023-04-01T03:18:20;8.90;99.90
78550;DHT22;68091;52.130;5.570;2023-04-01T03:20:46;9.00;99.90
78550;DHT22;68091;52.130;5.570;2023-04-01T03:23:12;9.00;99.90
78550;DHT22;68091;52.130;5.570;2023-04-01T03:25:38;9.00;99.90
78550;DHT22;68091;52.130;5.570;2023-04-01T03:28:04;9.00;99.90
78550;DHT22;68091;52.130;5.570;2023-04-01T03:30:30;9.10;99.90
78550;DHT22;68091;52.130;5.570;2023-04-01T03:32:57;9.00;99.90
78550;DHT22;68091;52.130;5.570;2023-04-01T03:35:23;9.00;99.90
78550;DHT22;68091;52.130;5.570;2023-04-01T03:37:53;9.00;99.90
78550;DHT22;68091;52.130;5.570;2023-04-01T03:40:19;9.00;99.90
78550;DHT22;68091;52.130;5.570;2023-04-01T03:42:45;9.00;99.90
78550;DHT22;68091;52.130;5.570;2023-04-01T03:45:10;9.00;99.90
78550;DHT22;68091;52.130;5.570;2023-04-01T03:47:38;9.00;99.90
78550;DHT22;68091;52.130;5.570;2023-04-01T03:50:05;9.00;99.90
78550;DHT22;68091;52.130;5.570;2023-04-01T03:52:31;9.00;99.90
78550;DHT22;68091;52.130;5.570;2023-04-01T03:54:56;9.00;99.90
78550;DHT22;68091;52.130;5.570;2023-04-01T03:57:22;9.10;99.90
78550;DHT22;68091;52.130;5.570;2023-04-01T03:59:57;9.00;99.90
78550;DHT22;68091;52.130;5.570;2023-04-01T04:02:22;9.00;99.90
78550;DHT22;68091;52.130;5.570;2023-04-01T04:04:48;9.10;99.90
78550;DHT22;68091;52.130;5.570;2023-04-01T04:07:14;9.10;99.90
78550;DHT22;68091;52.130;5.570;2023-04-01T04:09:40;9.10;99.90
78550;DHT22;68091;52.130;5.570;2023-04-01T04:12:06;9.10;99.90
78550;DHT22;68091;52.130;5.570;2023-04-01T04:14:31;9.10;99.90
78550;DHT22;68091;52.130;5.570;2023-04-01T04:16:58;9.10;99.90
78550;DHT22;68091;52.130;5.570;2023-04-01T04:19:24;9.10;99.90
78550;DHT22;68091;52.130;5.570;2023-04-01T04:21:49;9.10;99.90
78550;DHT22;68091;52.130;5.570;2023-04-01T04:24:15;9.10;99.90
78550;DHT22;68091;52.130;5.570;2023-04-01T04:26:41;9.00;99.90
78550;DHT22;68091;52.130;5.570;2023-04-01T04:29:07;9.10;99.90
78550;DHT22;68091;52.130;5.570;2023-04-01T04:31:32;9.00;99.90
78550;DHT22;68091;52.130;5.570;2023-04-01T04:34:00;9.00;99.90
78550;DHT22;68091;52.130;5.570;2023-04-01T04:36:26;9.00;99.90
78550;DHT22;68091;52.130;5.570;2023-04-01T04:38:52;9.10;99.90
78550;DHT22;68091;52.130;5.570;2023-04-01T04:41:19;9.10;99.90
78550;DHT22;68091;52.130;5.570;2023-04-01T04:43:52;9.00;99.90
78550;DHT22;68091;52.130;5.570;2023-04-01T04:46:19;9.00;99.90
78550;DHT22;68091;52.130;5.570;2023-04-01T04:48:45;9.10;99.90
78550;DHT22;68091;52.130;5.570;2023-04-01T04:51:18;9.10;99.90
78550;DHT22;68091;52.130;5.570;2023-04-01T04:57:01;9.10;99.90
78550;DHT22;68091;52.130;5.570;2023-04-01T04:59:26;9.10;99.90
78550;DHT22;68091;52.130;5.570;2023-04-01T05:01:52;9.10;99.90
78550;DHT22;68091;52.130;5.570;2023-04-01T05:04:18;9.10;99.90
78550;DHT22;68091;52.130;5.570;2023-04-01T05:06:44;9.10;99.90
78550;DHT22;68091;52.130;5.570;2023-04-01T05:09:10;9.20;99.90
78550;DHT22;68091;52.130;5.570;2023-04-01T05:11:36;9.30;99.90
78550;DHT22;68091;52.130;5.570;2023-04-01T05:14:02;9.30;99.90
78550;DHT22;68091;52.130;5.570;2023-04-01T05:16:27;9.30;99.90
78550;DHT22;68091;52.130;5.570;2023-04-01T05:18:53;9.30;99.90
78550;DHT22;68091;52.130;5.570;2023-04-01T05:21:19;9.30;99.90
78550;DHT22;68091;52.130;5.570;2023-04-01T05:23:47;9.30;99.90
78550;DHT22;68091;52.130;5.570;2023-04-01T05:26:14;9.30;99.90
78550;DHT22;68091;52.130;5.570;2023-04-01T05:28:40;9.30;99.90
78550;DHT22;68091;52.130;5.570;2023-04-01T05:31:07;9.30;99.90
78550;DHT22;68091;52.130;5.570;2023-04-01T05:33:33;9.20;99.90
78550;DHT22;68091;52.130;5.570;2023-04-01T05:36:10;9.30;99.90
78550;DHT22;68091;52.130;5.570;2023-04-01T05:38:37;9.30;99.90
78550;DHT22;68091;52.130;5.570;2023-04-01T05:41:03;9.30;99.90
78550;DHT22;68091;52.130;5.570;2023-04-01T05:43:29;9.30;99.90
78550;DHT22;68091;52.130;5.570;2023-04-01T05:45:56;9.30;99.90
78550;DHT22;68091;52.130;5.570;2023-04-01T05:48:22;9.30;99.90
78550;DHT22;68091;52.130;5.570;2023-04-01T05:50:48;9.40;99.90
78550;DHT22;68091;52.130;5.570;2023-04-01T05:53:13;9.40;99.90
78550;DHT22;68091;52.130;5.570;2023-04-01T05:55:39;9.40;99.90
78550;DHT22;68091;52.130;5.570;2023-04-01T05:58:05;9.40;99.90
78550;DHT22;68091;52.130;5.570;2023-04-01T06:00:31;9.40;99.90
78550;DHT22;68091;52.130;5.570;2023-04-01T06:03:00;9.50;99.90
78550;DHT22;68091;52.130;5.570;2023-04-01T06:05:29;9.50;99.90
78550;DHT22;68091;52.130;5.570;2023-04-01T06:08:05;9.50;99.90
78550;DHT22;68091;52.130;5.570;2023-04-01T06:22:03;9.70;99.90
78550;DHT22;68091;52.130;5.570;2023-04-01T06:33:32;9.70;99.90
78550;DHT22;68091;52.130;5.570;2023-04-01T06:41:35;9.70;99.90
78550;DHT22;68091;52.130;5.570;2023-04-01T06:47:21;9.70;99.90
78550;DHT22;68091;52.130;5.570;2023-04-01T06:52:55;9.70;99.90
78550;DHT22;68091;52.130;5.570;2023-04-01T06:55:46;9.70;99.90
78550;DHT22;68091;52.130;5.570;2023-04-01T06:58:29;9.70;99.90
78550;DHT22;68091;52.130;5.570;2023-04-01T07:01:02;9.80;99.90
78550;DHT22;68091;52.130;5.570;2023-04-01T07:03:49;9.80;99.90
78550;DHT22;68091;52.130;5.570;2023-04-01T07:06:43;9.80;99.90
78550;DHT22;68091;52.130;5.570;2023-04-01T07:09:14;9.80;99.90
78550;DHT22;68091;52.130;5.570;2023-04-01T07:11:41;10.00;99.90
78550;DHT22;68091;52.130;5.570;2023-04-01T07:14:19;9.90;99.90
78550;DHT22;68091;52.130;5.570;2023-04-01T07:17:04;9.90;99.90
78550;DHT22;68091;52.130;5.570;2023-04-01T07:19:42;10.00;99.90
78550;DHT22;68091;52.130;5.570;2023-04-01T07:24:45;10.10;99.90
78550;DHT22;68091;52.130;5.570;2023-04-01T07:27:14;10.30;99.90
78550;DHT22;68091;52.130;5.570;2023-04-01T07:29:40;10.20;99.90
78550;DHT22;68091;52.130;5.570;2023-04-01T07:38:18;10.10;99.90
78550;DHT22;68091;52.130;5.570;2023-04-01T07:43:57;10.10;99.90
78550;DHT22;68091;52.130;5.570;2023-04-01T07:49:53;10.30;99.90
78550;DHT22;68091;52.130;5.570;2023-04-01T08:03:58;10.30;99.90
78550;DHT22;68091;52.130;5.570;2023-04-01T08:06:28;10.40;99.90
78550;DHT22;68091;52.130;5.570;2023-04-01T08:17:54;10.40;99.90
78550;DHT22;68091;52.130;5.570;2023-04-01T08:23:19;10.50;99.90
78550;DHT22;68091;52.130;5.570;2023-04-01T08:29:09;10.60;99.90
78550;DHT22;68091;52.130;5.570;2023-04-01T08:34:46;10.70;99.90
78550;DHT22;68091;52.130;5.570;2023-04-01T08:37:21;10.60;99.90
78550;DHT22;68091;52.130;5.570;2023-04-01T08:39:57;10.70;99.90
78550;DHT22;68091;52.130;5.570;2023-04-01T08:45:38;10.70;99.90
78550;DHT22;68091;52.130;5.570;2023-04-01T08:51:48;10.70;99.90
78550;DHT22;68091;52.130;5.570;2023-04-01T08:57:10;10.70;99.90
78550;DHT22;68091;52.130;5.570;2023-04-01T09:08:08;10.90;99.90
78550;DHT22;68091;52.130;5.570;2023-04-01T09:10:49;10.90;99.90
78550;DHT22;68091;52.130;5.570;2023-04-01T09:19:36;10.90;99.90
78550;DHT22;68091;52.130;5.570;2023-04-01T09:33:54;11.40;99.90
78550;DHT22;68091;52.130;5.570;2023-04-01T09:44:41;12.10;99.90
78550;DHT22;68091;52.130;5.570;2023-04-01T09:50:26;12.10;99.90
78550;DHT22;68091;52.130;5.570;2023-04-01T10:19:26;12.50;99.90
78550;DHT22;68091;52.130;5.570;2023-04-01T10:22:00;12.60;99.90
78550;DHT22;68091;52.130;5.570;2023-04-01T10:33:32;12.60;99.90
78550;DHT22;68091;52.130;5.570;2023-04-01T10:56:17;12.20;99.90
78550;DHT22;68091;52.130;5.570;2023-04-01T10:58:51;12.10;99.90
78550;DHT22;68091;52.130;5.570;2023-04-01T11:18:39;11.80;99.90
78550;DHT22;68091;52.130;5.570;2023-04-01T11:33:09;11.90;99.90
78550;DHT22;68091;52.130;5.570;2023-04-01T11:48:08;12.10;99.90
78550;DHT22;68091;52.130;5.570;2023-04-01T11:51:11;12.20;99.90
78550;DHT22;68091;52.130;5.570;2023-04-01T11:54:39;12.10;99.90
78550;DHT22;68091;52.130;5.570;2023-04-01T11:57:10;12.10;99.90
78550;DHT22;68091;52.130;5.570;2023-04-01T12:08:15;12.00;99.90
78550;DHT22;68091;52.130;5.570;2023-04-01T12:16:34;12.40;99.90
78550;DHT22;68091;52.130;5.570;2023-04-01T12:19:35;12.50;99.90
78550;DHT22;68091;52.130;5.570;2023-04-01T12:30:37;13.20;99.90
78550;DHT22;68091;52.130;5.570;2023-04-01T12:33:18;13.30;99.90
78550;DHT22;68091;52.130;5.570;2023-04-01T12:50:44;12.60;99.90
78550;DHT22;68091;52.130;5.570;2023-04-01T12:56:14;12.40;99.90
78550;DHT22;68091;52.130;5.570;2023-04-01T12:58:54;12.40;99.90
78550;DHT22;68091;52.130;5.570;2023-04-01T13:10:01;12.40;99.90
78550;DHT22;68091;52.130;5.570;2023-04-01T13:12:36;12.40;99.90
78550;DHT22;68091;52.130;5.570;2023-04-01T13:15:47;12.40;99.90
78550;DHT22;68091;52.130;5.570;2023-04-01T13:18:24;12.30;99.90
78550;DHT22;68091;52.130;5.570;2023-04-01T13:21:15;12.30;99.90
78550;DHT22;68091;52.130;5.570;2023-04-01T13:26:40;12.20;99.90
78550;DHT22;68091;52.130;5.570;2023-04-01T13:29:16;12.30;99.90
78550;DHT22;68091;52.130;5.570;2023-04-01T13:32:41;12.30;99.90
78550;DHT22;68091;52.130;5.570;2023-04-01T13:35:41;12.20;99.90
78550;DHT22;68091;52.130;5.570;2023-04-01T13:38:43;12.00;99.90
78550;DHT22;68091;52.130;5.570;2023-04-01T13:43:49;11.70;99.90
78550;DHT22;68091;52.130;5.570;2023-04-01T13:46:42;11.50;99.90
78550;DHT22;68091;52.130;5.570;2023-04-01T13:58:02;11.90;99.90
78550;DHT22;68091;52.130;5.570;2023-04-01T14:03:48;11.80;99.90
78550;DHT22;68091;52.130;5.570;2023-04-01T14:11:56;11.80;99.90
78550;DHT22;68091;52.130;5.570;2023-04-01T14:17:47;11.70;99.90
78550;DHT22;68091;52.130;5.570;2023-04-01T14:20:39;11.70;99.90
78550;DHT22;68091;52.130;5.570;2023-04-01T14:26:44;11.50;99.90
78550;DHT22;68091;52.130;5.570;2023-04-01T14:37:30;11.30;99.90
78550;DHT22;68091;52.130;5.570;2023-04-01T14:40:26;11.20;99.90
78550;DHT22;68091;52.130;5.570;2023-04-01T14:51:39;11.10;99.90
78550;DHT22;68091;52.130;5.570;2023-04-01T14:54:16;11.10;99.90
78550;DHT22;68091;52.130;5.570;2023-04-01T14:59:49;11.40;99.90
78550;DHT22;68091;52.130;5.570;2023-04-01T15:19:22;11.70;99.90
78550;DHT22;68091;52.130;5.570;2023-04-01T15:22:18;11.70;99.90
78550;DHT22;68091;52.130;5.570;2023-04-01T15:27:42;11.70;99.90
78550;DHT22;68091;52.130;5.570;2023-04-01T15:39:13;11.50;99.90
78550;DHT22;68091;52.130;5.570;2023-04-01T15:44:51;11.50;99.90
78550;DHT22;68091;52.130;5.570;2023-04-01T15:58:32;11.30;99.90
78550;DHT22;68091;52.130;5.570;2023-04-01T16:01:24;11.20;99.90
78550;DHT22;68091;52.130;5.570;2023-04-01T16:07:02;11.10;99.90
78550;DHT22;68091;52.130;5.570;2023-04-01T16:09:50;11.10;99.90
78550;DHT22;68091;52.130;5.570;2023-04-01T16:18:07;10.80;99.90
78550;DHT22;68091;52.130;5.570;2023-04-01T16:21:07;10.90;99.90
78550;DHT22;68091;52.130;5.570;2023-04-01T16:24:02;10.80;99.90
78550;DHT22;68091;52.130;5.570;2023-04-01T16:31:37;10.60;99.90
78550;DHT22;68091;52.130;5.570;2023-04-01T16:34:19;10.60;99.90
78550;DHT22;68091;52.130;5.570;2023-04-01T16:42:51;10.40;99.90
78550;DHT22;68091;52.130;5.570;2023-04-01T16:45:41;10.40;99.90
78550;DHT22;68091;52.130;5.570;2023-04-01T16:48:13;10.40;99.90
78550;DHT22;68091;52.130;5.570;2023-04-01T16:51:04;10.30;99.90
78550;DHT22;68091;52.130;5.570;2023-04-01T16:53:42;10.30;99.90
78550;DHT22;68091;52.130;5.570;2023-04-01T17:07:28;10.00;99.90
78550;DHT22;68091;52.130;5.570;2023-04-01T17:10:22;10.00;99.90
78550;DHT22;68091;52.130;5.570;2023-04-01T17:16:22;9.90;99.90
78550;DHT22;68091;52.130;5.570;2023-04-01T17:18:55;9.90;99.90
78550;DHT22;68091;52.130;5.570;2023-04-01T17:24:42;9.80;99.90
78550;DHT22;68091;52.130;5.570;2023-04-01T17:32:53;9.80;99.90
78550;DHT22;68091;52.130;5.570;2023-04-01T17:35:22;9.80;99.90
78550;DHT22;68091;52.130;5.570;2023-04-01T17:43:25;9.70;99.90
78550;DHT22;68091;52.130;5.570;2023-04-01T17:45:57;9.60;99.90
78550;DHT22;68091;52.130;5.570;2023-04-01T17:49:01;9.60;99.90
78550;DHT22;68091;52.130;5.570;2023-04-01T17:51:38;9.50;99.90
78550;DHT22;68091;52.130;5.570;2023-04-01T18:08:06;9.30;99.90
78550;DHT22;68091;52.130;5.570;2023-04-01T18:10:57;9.30;99.90
78550;DHT22;68091;52.130;5.570;2023-04-01T18:16:38;9.30;99.90
78550;DHT22;68091;52.130;5.570;2023-04-01T18:19:58;9.20;99.90
78550;DHT22;68091;52.130;5.570;2023-04-01T18:25:02;9.20;99.90
78550;DHT22;68091;52.130;5.570;2023-04-01T18:27:37;9.20;99.90
78550;DHT22;68091;52.130;5.570;2023-04-01T18:30:29;9.20;99.90
78550;DHT22;68091;52.130;5.570;2023-04-01T18:33:18;9.20;99.90
78550;DHT22;68091;52.130;5.570;2023-04-01T18:35:54;9.30;99.90
78550;DHT22;68091;52.130;5.570;2023-04-01T18:38:49;9.20;99.90
78550;DHT22;68091;52.130;5.570;2023-04-01T18:49:52;9.10;99.90
78550;DHT22;68091;52.130;5.570;2023-04-01T18:52:39;9.10;99.90
78550;DHT22;68091;52.130;5.570;2023-04-01T19:00:32;9.10;99.90
78550;DHT22;68091;52.130;5.570;2023-04-01T19:03:10;9.00;99.90
78550;DHT22;68091;52.130;5.570;2023-04-01T19:05:41;9.00;99.90
78550;DHT22;68091;52.130;5.570;2023-04-01T19:08:27;8.90;99.90
78550;DHT22;68091;52.130;5.570;2023-04-01T19:11:10;9.00;99.90
78550;DHT22;68091;52.130;5.570;2023-04-01T19:14:25;8.90;99.90
78550;DHT22;68091;52.130;5.570;2023-04-01T19:17:16;8.90;99.90
78550;DHT22;68091;52.130;5.570;2023-04-01T19:19:46;8.90;99.90
78550;DHT22;68091;52.130;5.570;2023-04-01T19:30:45;8.80;99.90
78550;DHT22;68091;52.130;5.570;2023-04-01T19:33:37;8.80;99.90
78550;DHT22;68091;52.130;5.570;2023-04-01T19:36:24;8.80;99.90
78550;DHT22;68091;52.130;5.570;2023-04-01T19:39:21;8.80;99.90
78550;DHT22;68091;52.130;5.570;2023-04-01T19:42:07;8.70;99.90
78550;DHT22;68091;52.130;5.570;2023-04-01T19:45:05;8.70;99.90
78550;DHT22;68091;52.130;5.570;2023-04-01T19:50:33;8.60;99.90
78550;DHT22;68091;52.130;5.570;2023-04-01T19:53:15;8.60;99.90
78550;DHT22;68091;52.130;5.570;2023-04-01T19:55:50;8.50;99.90
78550;DHT22;68091;52.130;5.570;2023-04-01T19:58:41;8.50;99.90
78550;DHT22;68091;52.130;5.570;2023-04-01T20:01:14;8.40;99.90
78550;DHT22;68091;52.130;5.570;2023-04-01T20:04:03;8.40;99.90
78550;DHT22;68091;52.130;5.570;2023-04-01T20:06:38;8.30;99.90
78550;DHT22;68091;52.130;5.570;2023-04-01T20:12:10;8.40;99.90
78550;DHT22;68091;52.130;5.570;2023-04-01T20:25:32;8.30;99.90
78550;DHT22;68091;52.130;5.570;2023-04-01T20:33:32;8.20;99.90
78550;DHT22;68091;52.130;5.570;2023-04-01T20:39:41;8.10;99.90
78550;DHT22;68091;52.130;5.570;2023-04-01T20:42:24;8.10;99.90
78550;DHT22;68091;52.130;5.570;2023-04-01T20:44:55;8.00;99.90
78550;DHT22;68091;52.130;5.570;2023-04-01T20:50:50;8.00;99.90
78550;DHT22;68091;52.130;5.570;2023-04-01T20:53:36;7.90;99.90
78550;DHT22;68091;52.130;5.570;2023-04-01T21:08:14;7.70;99.90
78550;DHT22;68091;52.130;5.570;2023-04-01T21:10:45;7.70;99.90
78550;DHT22;68091;52.130;5.570;2023-04-01T21:16:52;7.60;99.90
78550;DHT22;68091;52.130;5.570;2023-04-01T21:19:59;7.60;99.90
78550;DHT22;68091;52.130;5.570;2023-04-01T21:30:31;7.60;99.90
78550;DHT22;68091;52.130;5.570;2023-04-01T21:44:37;7.40;99.90
78550;DHT22;68091;52.130;5.570;2023-04-01T21:50:18;7.40;99.90
78550;DHT22;68091;52.130;5.570;2023-04-01T22:01:14;7.40;99.90
78550;DHT22;68091;52.130;5.570;2023-04-01T22:06:59;7.30;99.90
78550;DHT22;68091;52.130;5.570;2023-04-01T22:09:43;7.30;99.90
78550;DHT22;68091;52.130;5.570;2023-04-01T22:12:23;7.30;99.90
78550;DHT22;68091;52.130;5.570;2023-04-01T22:20:37;7.20;99.90
78550;DHT22;68091;52.130;5.570;2023-04-01T22:23:22;7.10;99.90
78550;DHT22;68091;52.130;5.570;2023-04-01T22:29:19;7.20;99.90
78550;DHT22;68091;52.130;5.570;2023-04-01T22:32:07;7.10;99.90
78550;DHT22;68091;52.130;5.570;2023-04-01T22:40:39;7.00;99.90
78550;DHT22;68091;52.130;5.570;2023-04-01T22:43:10;7.00;99.90
78550;DHT22;68091;52.130;5.570;2023-04-01T22:45:40;7.00;99.90
78550;DHT22;68091;52.130;5.570;2023-04-01T22:56:53;6.90;99.90
78550;DHT22;68091;52.130;5.570;2023-04-01T22:59:41;6.90;99.90
78550;DHT22;68091;52.130;5.570;2023-04-01T23:02:21;6.90;99.90
78550;DHT22;68091;52.130;5.570;2023-04-01T23:04:55;6.90;99.90
78550;DHT22;68091;52.130;5.570;2023-04-01T23:10:33;6.80;99.90
78550;DHT22;68091;52.130;5.570;2023-04-01T23:13:03;6.80;99.90
78550;DHT22;68091;52.130;5.570;2023-04-01T23:15:32;6.70;99.90
78550;DHT22;68091;52.130;5.570;2023-04-01T23:18:17;6.80;99.90
78550;DHT22;68091;52.130;5.570;2023-04-01T23:21:06;6.80;99.90
78550;DHT22;68091;52.130;5.570;2023-04-01T23:29:35;6.70;99.90
78550;DHT22;68091;52.130;5.570;2023-04-01T23:32:03;6.70;99.90
78550;DHT22;68091;52.130;5.570;2023-04-01T23:37:08;6.70;99.90
78550;DHT22;68091;52.130;5.570;2023-04-01T23:42:39;6.70;99.90
78550;DHT22;68091;52.130;5.570;2023-04-01T23:45:13;6.70;99.90
78550;DHT22;68091;52.130;5.570;2023-04-01T23:47:43;6.70;99.90
78550;DHT22;68091;52.130;5.570;2023-04-01T23:50:20;6.60;99.90
78550;DHT22;68091;52.130;5.570;2023-04-01T23:55:43;6.50;99.90
